createdAt,value
2018-09-23T00:00:55.060Z,78.55
2018-09-23T00:03:25.613Z,77.97
2018-09-23T00:05:56.120Z,77.33
2018-09-23T00:08:26.717Z,77.79
2018-09-23T00:10:57.293Z,77.68
2018-09-23T00:13:27.523Z,78.97
2018-09-23T00:15:57.931Z,78.71
2018-09-23T00:18:28.400Z,78.94
2018-09-23T00:20:58.823Z,78.84
2018-09-23T00:23:29.042Z,78.79
2018-09-23T00:25:59.551Z,79.15
2018-09-23T00:28:29.889Z,79.25
2018-09-23T00:31:00.327Z,78.55
2018-09-23T00:33:30.770Z,78.79
2018-09-23T00:36:00.949Z,78.74
2018-09-23T00:38:31.857Z,77.94
2018-09-23T00:41:02.369Z,78.67
2018-09-23T00:43:32.776Z,79.21
2018-09-23T00:46:03.373Z,78.58
2018-09-23T00:48:34.645Z,77.85
2018-09-23T00:51:05.233Z,77.71
2018-09-23T00:53:35.624Z,78.15
2018-09-23T00:56:06.245Z,78.25
2018-09-23T00:58:36.568Z,78.13
2018-09-23T01:01:06.971Z,77.65
2018-09-23T01:03:37.432Z,78.01
2018-09-23T01:06:07.995Z,77.84
2018-09-23T01:08:38.512Z,78.22
2018-09-23T01:11:09.572Z,77.10
2018-09-23T01:13:39.934Z,77.02
2018-09-23T01:16:10.423Z,77.70
2018-09-23T01:18:40.644Z,76.71
2018-09-23T01:21:11.043Z,77.54
2018-09-23T01:23:41.416Z,77.00
2018-09-23T01:26:11.880Z,76.61
2018-09-23T01:28:42.382Z,76.31
2018-09-23T01:31:12.603Z,76.93
2018-09-23T01:33:43.000Z,77.38
2018-09-23T01:36:13.608Z,77.55
2018-09-23T01:38:44.003Z,77.47
2018-09-23T01:41:15.414Z,77.83
2018-09-23T01:43:45.365Z,77.39
2018-09-23T01:46:15.624Z,77.10
2018-09-23T01:48:45.346Z,77.63
2018-09-23T01:51:15.047Z,77.43
2018-09-23T01:53:44.768Z,76.90
2018-09-23T01:56:14.552Z,77.28
2018-09-23T01:58:45.065Z,77.14
2018-09-23T02:01:15.319Z,77.32
2018-09-23T02:03:45.662Z,77.74
2018-09-23T02:06:16.160Z,76.92
2018-09-23T02:08:46.655Z,77.23
2018-09-23T02:11:16.935Z,77.05
2018-09-23T02:13:47.308Z,76.26
2018-09-23T02:16:17.675Z,76.62
2018-09-23T02:18:48.361Z,76.47
2018-09-23T02:21:18.818Z,75.93
2018-09-23T02:23:49.102Z,76.75
2018-09-23T02:26:19.375Z,76.75
2018-09-23T02:28:49.291Z,76.26
2018-09-23T02:31:19.073Z,75.68
2018-09-23T02:33:48.794Z,76.86
2018-09-23T02:36:19.320Z,77.02
2018-09-23T02:38:49.207Z,77.11
2018-09-23T02:41:19.100Z,76.99
2018-09-23T02:43:49.521Z,76.76
2018-09-23T02:46:19.798Z,77.88
2018-09-23T02:48:50.199Z,77.40
2018-09-23T02:51:20.565Z,76.99
2018-09-23T02:53:51.047Z,77.78
2018-09-23T02:56:21.637Z,77.83
2018-09-23T02:58:51.952Z,78.13
2018-09-23T03:01:22.252Z,78.31
2018-09-23T03:03:52.728Z,77.84
2018-09-23T03:06:23.241Z,78.44
2018-09-23T03:08:53.812Z,77.35
2018-09-23T03:11:24.208Z,77.69
2018-09-23T03:13:54.535Z,77.74
2018-09-23T03:16:25.045Z,78.18
2018-09-23T03:18:55.552Z,77.58
2018-09-23T03:21:25.915Z,77.47
2018-09-23T03:23:56.294Z,77.20
2018-09-23T03:26:26.535Z,77.67
2018-09-23T03:28:57.058Z,77.29
2018-09-23T03:31:27.577Z,77.38
2018-09-23T03:33:58.083Z,77.02
2018-09-23T03:36:28.641Z,77.71
2018-09-23T03:38:59.035Z,77.65
2018-09-23T03:41:29.379Z,77.44
2018-09-23T03:43:59.676Z,77.38
2018-09-23T03:46:30.150Z,77.20
2018-09-23T03:49:00.889Z,77.44
2018-09-23T03:51:31.353Z,77.63
2018-09-23T03:54:01.752Z,77.40
2018-09-23T03:56:32.082Z,77.38
2018-09-23T03:59:02.458Z,77.74
2018-09-23T04:01:32.931Z,77.29
2018-09-23T04:04:03.352Z,77.64
2018-09-23T04:06:33.692Z,77.91
2018-09-23T04:09:04.276Z,78.53
2018-09-23T04:11:34.613Z,77.71
2018-09-23T04:14:05.083Z,77.86
2018-09-23T04:16:35.787Z,77.86
2018-09-23T04:19:06.400Z,77.24
2018-09-23T04:21:36.836Z,77.72
2018-09-23T04:24:07.208Z,77.64
2018-09-23T04:26:37.656Z,77.69
2018-09-23T04:29:07.995Z,78.84
2018-09-23T04:31:38.316Z,78.10
2018-09-23T04:34:09.029Z,78.05
2018-09-23T04:36:39.545Z,78.09
2018-09-23T04:39:11.827Z,77.66
2018-09-23T04:41:42.276Z,78.38
2018-09-23T04:44:12.572Z,78.12
2018-09-23T04:46:42.943Z,77.75
2018-09-23T04:49:13.454Z,78.53
2018-09-23T04:51:43.822Z,78.83
2018-09-23T04:54:14.325Z,79.35
2018-09-23T04:56:44.675Z,79.15
2018-09-23T04:59:15.914Z,79.04
2018-09-23T05:01:46.376Z,79.42
2018-09-23T05:04:16.857Z,79.88
2018-09-23T05:06:47.222Z,79.03
2018-09-23T05:09:17.598Z,79.20
2018-09-23T05:11:47.979Z,79.58
2018-09-23T05:14:18.432Z,79.67
2018-09-23T05:16:48.743Z,79.14
2018-09-23T05:19:19.233Z,79.65
2018-09-23T05:21:49.748Z,79.83
2018-09-23T05:24:19.994Z,79.47
2018-09-23T05:26:50.439Z,79.54
2018-09-23T05:29:20.772Z,79.66
2018-09-23T05:31:51.181Z,79.54
2018-09-23T05:34:21.639Z,79.89
2018-09-23T05:36:52.053Z,80.04
2018-09-23T05:39:22.268Z,79.62
2018-09-23T05:41:52.615Z,79.75
2018-09-23T05:44:22.950Z,80.60
2018-09-23T05:46:53.492Z,80.01
2018-09-23T05:49:23.895Z,79.93
2018-09-23T05:51:54.204Z,79.66
2018-09-23T05:54:24.578Z,79.69
2018-09-23T05:56:54.872Z,78.50
2018-09-23T05:59:25.456Z,78.61
2018-09-23T06:01:55.835Z,78.64
2018-09-23T06:04:26.294Z,79.01
2018-09-23T06:06:56.796Z,79.27
2018-09-23T06:09:27.287Z,79.25
2018-09-23T06:11:57.681Z,79.20
2018-09-23T06:14:27.980Z,79.91
2018-09-23T06:16:58.312Z,79.34
2018-09-23T06:19:28.703Z,79.86
2018-09-23T06:21:58.984Z,78.55
2018-09-23T06:24:29.352Z,78.70
2018-09-23T06:26:59.719Z,78.53
2018-09-23T06:29:30.196Z,77.76
2018-09-23T06:32:00.700Z,77.21
2018-09-23T06:34:31.209Z,76.95
2018-09-23T06:37:01.601Z,77.18
2018-09-23T06:39:32.122Z,76.38
2018-09-23T06:42:02.504Z,76.33
2018-09-23T06:44:32.905Z,75.51
2018-09-23T06:47:03.396Z,75.09
2018-09-23T06:49:33.731Z,75.16
2018-09-23T06:52:04.188Z,75.86
2018-09-23T06:54:34.607Z,75.15
2018-09-23T06:57:04.938Z,74.84
2018-09-23T06:59:35.580Z,73.90
2018-09-23T07:02:06.197Z,74.86
2018-09-23T07:04:36.467Z,74.70
2018-09-23T07:07:06.823Z,74.97
2018-09-23T07:09:37.286Z,73.90
2018-09-23T07:12:07.790Z,73.76
2018-09-23T07:14:38.288Z,73.51
2018-09-23T07:17:09.968Z,73.11
2018-09-23T07:19:40.431Z,73.28
2018-09-23T07:22:10.941Z,73.43
2018-09-23T07:24:41.399Z,73.19
2018-09-23T07:27:11.968Z,74.42
2018-09-23T07:29:42.215Z,73.46
2018-09-23T07:32:12.508Z,74.51
2018-09-23T07:34:43.118Z,72.37
2018-09-23T07:37:13.613Z,72.52
2018-09-23T07:39:43.986Z,72.55
2018-09-23T07:42:15.329Z,72.91
2018-09-23T07:44:45.834Z,72.88
2018-09-23T07:47:16.409Z,72.80
2018-09-23T07:49:46.977Z,72.53
2018-09-23T07:52:17.204Z,73.14
2018-09-23T07:54:47.600Z,72.67
2018-09-23T07:57:17.929Z,73.03
2018-09-23T07:59:48.333Z,72.29
2018-09-23T08:02:18.603Z,72.46
2018-09-23T08:04:48.968Z,72.53
2018-09-23T08:07:19.571Z,72.60
2018-09-23T08:09:50.034Z,71.27
2018-09-23T08:12:20.656Z,71.41
2018-09-23T08:14:51.454Z,71.20
2018-09-23T08:17:21.767Z,71.26
2018-09-23T08:19:52.198Z,70.62
2018-09-23T08:22:22.447Z,70.69
2018-09-23T08:24:52.871Z,71.92
2018-09-23T08:27:23.249Z,70.86
2018-09-23T08:29:53.581Z,71.42
2018-09-23T08:32:24.085Z,70.34
2018-09-23T08:34:54.588Z,69.74
2018-09-23T08:37:25.313Z,70.05
2018-09-23T08:39:55.750Z,69.85
2018-09-23T08:42:26.431Z,69.46
2018-09-23T08:44:56.917Z,69.98
2018-09-23T08:47:28.013Z,71.58
2018-09-23T08:49:58.389Z,70.10
2018-09-23T08:52:28.758Z,70.96
2018-09-23T08:54:59.141Z,69.77
2018-09-23T08:57:29.526Z,69.42
2018-09-23T09:00:00.076Z,69.96
2018-09-23T09:02:30.574Z,70.54
2018-09-23T09:05:00.750Z,71.21
2018-09-23T09:07:31.248Z,71.23
2018-09-23T09:10:01.599Z,72.60
2018-09-23T09:12:32.006Z,72.25
2018-09-23T09:15:02.301Z,71.61
2018-09-23T09:17:32.627Z,71.40
2018-09-23T09:20:03.209Z,69.21
2018-09-23T09:22:33.819Z,70.20
2018-09-23T09:25:04.411Z,68.13
2018-09-23T09:27:34.804Z,69.42
2018-09-23T09:30:05.227Z,70.76
2018-09-23T09:32:35.776Z,70.79
2018-09-23T09:35:06.365Z,70.87
2018-09-23T09:37:36.695Z,71.74
2018-09-23T09:40:07.287Z,71.73
2018-09-23T09:42:37.825Z,71.95
2018-09-23T09:45:08.251Z,71.12
2018-09-23T09:47:38.612Z,71.56
2018-09-23T09:50:09.007Z,72.16
2018-09-23T09:52:39.513Z,71.89
2018-09-23T09:55:09.895Z,72.70
2018-09-23T09:57:40.237Z,72.45
2018-09-23T10:00:10.807Z,73.07
2018-09-23T10:02:41.202Z,74.05
2018-09-23T10:05:11.704Z,73.65
2018-09-23T10:07:42.210Z,73.93
2018-09-23T10:10:12.584Z,72.99
2018-09-23T10:12:42.938Z,73.25
2018-09-23T10:15:13.543Z,73.57
2018-09-23T10:17:44.063Z,73.63
2018-09-23T10:20:14.500Z,74.83
2018-09-23T10:22:45.309Z,73.95
2018-09-23T10:25:15.780Z,74.05
2018-09-23T10:27:46.380Z,73.93
2018-09-23T10:30:16.744Z,74.49
2018-09-23T10:32:46.976Z,75.17
2018-09-23T10:35:17.379Z,76.65
2018-09-23T10:37:47.802Z,75.32
2018-09-23T10:40:18.176Z,75.27
2018-09-23T10:42:48.710Z,74.11
2018-09-23T10:45:19.186Z,74.20
2018-09-23T10:47:49.672Z,74.55
2018-09-23T10:50:20.188Z,74.75
2018-09-23T10:52:50.754Z,74.55
2018-09-23T10:55:21.038Z,74.21
2018-09-23T10:57:51.424Z,74.85
2018-09-23T11:00:22.017Z,75.19
2018-09-23T11:02:52.580Z,75.53
2018-09-23T11:05:22.867Z,76.12
2018-09-23T11:07:53.104Z,76.14
2018-09-23T11:10:23.500Z,75.14
2018-09-23T11:12:53.920Z,76.26
2018-09-23T11:15:24.370Z,76.83
2018-09-23T11:17:54.652Z,75.97
2018-09-23T11:20:25.057Z,76.95
2018-09-23T11:22:55.417Z,75.18
2018-09-23T11:25:25.767Z,75.99
2018-09-23T11:27:56.192Z,75.30
2018-09-23T11:30:26.436Z,76.57
2018-09-23T11:32:56.813Z,76.34
2018-09-23T11:35:27.221Z,77.70
2018-09-23T11:37:57.705Z,77.25
2018-09-23T11:40:28.081Z,77.53
2018-09-23T11:42:58.529Z,76.69
2018-09-23T11:45:28.932Z,77.80
2018-09-23T11:47:59.441Z,78.75
2018-09-23T11:50:30.072Z,78.57
2018-09-23T11:53:00.499Z,77.93
2018-09-23T11:55:30.754Z,78.35
2018-09-23T11:58:01.303Z,78.50
2018-09-23T12:00:31.816Z,79.24
2018-09-23T12:03:02.330Z,78.95
2018-09-23T12:05:32.586Z,77.60
2018-09-23T12:08:03.104Z,78.14
2018-09-23T12:10:33.549Z,78.75
2018-09-23T12:13:04.156Z,78.76
2018-09-23T12:15:34.588Z,79.58
2018-09-23T12:18:05.400Z,79.01
2018-09-23T12:20:35.904Z,78.81
2018-09-23T12:23:06.268Z,78.00
2018-09-23T12:25:36.700Z,77.95
2018-09-23T12:28:07.124Z,79.16
2018-09-23T12:30:37.524Z,78.97
2018-09-23T12:33:08.050Z,78.26
2018-09-23T12:35:38.472Z,78.78
2018-09-23T12:38:08.739Z,78.82
2018-09-23T12:40:39.116Z,79.10
2018-09-23T12:43:09.657Z,78.56
2018-09-23T12:45:39.957Z,79.58
2018-09-23T12:48:10.348Z,79.45
2018-09-23T12:50:40.763Z,79.65
2018-09-23T12:53:11.220Z,79.09
2018-09-23T12:55:41.478Z,78.70
2018-09-23T12:58:11.988Z,78.73
2018-09-23T13:00:42.480Z,79.00
2018-09-23T13:03:12.728Z,78.64
2018-09-23T13:05:43.140Z,79.36
2018-09-23T13:08:13.603Z,79.16
2018-09-23T13:10:43.761Z,79.83
2018-09-23T13:13:14.271Z,79.24
2018-09-23T13:15:44.735Z,79.68
2018-09-23T13:18:15.220Z,79.69
2018-09-23T13:20:45.516Z,79.62
2018-09-23T13:23:15.744Z,79.87
2018-09-23T13:25:46.187Z,79.34
2018-09-23T13:28:16.753Z,79.26
2018-09-23T13:30:47.135Z,79.67
2018-09-23T13:33:17.384Z,79.82
2018-09-23T13:35:47.871Z,80.27
2018-09-23T13:38:18.375Z,79.65
2018-09-23T13:40:48.769Z,80.02
2018-09-23T13:43:19.095Z,80.00
2018-09-23T13:45:49.710Z,79.79
2018-09-23T13:48:20.177Z,80.87
2018-09-23T13:50:50.487Z,79.98
2018-09-23T13:53:20.842Z,80.35
2018-09-23T13:55:51.524Z,79.92
2018-09-23T13:58:21.839Z,79.83
2018-09-23T14:00:52.182Z,80.07
2018-09-23T14:03:22.843Z,79.30
2018-09-23T14:05:53.338Z,79.20
2018-09-23T14:08:23.853Z,78.61
2018-09-23T14:10:54.344Z,78.67
2018-09-23T14:13:25.402Z,79.22
2018-09-23T14:15:55.811Z,79.24
2018-09-23T14:18:26.318Z,78.78
2018-09-23T14:20:56.551Z,78.68
2018-09-23T14:23:27.087Z,78.49
2018-09-23T14:25:57.532Z,78.67
2018-09-23T14:28:28.143Z,76.53
2018-09-23T14:30:58.472Z,77.94
2018-09-23T14:33:28.863Z,78.54
2018-09-23T14:35:59.323Z,77.54
2018-09-23T14:38:29.952Z,77.85
2018-09-23T14:41:00.319Z,77.39
2018-09-23T14:43:30.568Z,77.85
2018-09-23T14:46:00.872Z,78.52
2018-09-23T14:48:31.419Z,78.73
2018-09-23T14:51:02.332Z,79.63
2018-09-23T14:53:32.808Z,79.67
2018-09-23T14:56:03.336Z,79.44
2018-09-23T14:58:33.635Z,79.98
2018-09-23T15:01:04.107Z,79.50
2018-09-23T15:03:34.580Z,78.44
2018-09-23T15:06:05.048Z,78.81
2018-09-23T15:08:35.529Z,78.28
2018-09-23T15:11:05.998Z,77.58
2018-09-23T15:13:36.343Z,78.41
2018-09-23T15:16:06.860Z,78.54
2018-09-23T15:18:37.368Z,78.81
2018-09-23T15:21:07.696Z,78.64
2018-09-23T15:23:38.236Z,78.49
2018-09-23T15:26:08.583Z,79.17
2018-09-23T15:28:38.943Z,79.46
2018-09-23T15:31:09.333Z,79.46
2018-09-23T15:33:39.711Z,79.11
2018-09-23T15:36:10.049Z,78.67
2018-09-23T15:38:40.382Z,78.16
2018-09-23T15:41:10.841Z,77.66
2018-09-23T15:43:41.612Z,77.16
2018-09-23T15:46:12.215Z,77.59
2018-09-23T15:48:42.684Z,78.51
2018-09-23T15:51:13.284Z,78.59
2018-09-23T15:53:43.676Z,77.35
2018-09-23T15:56:14.028Z,75.90
2018-09-23T15:58:44.435Z,76.44
2018-09-23T16:01:14.819Z,76.58
2018-09-23T16:03:45.263Z,75.76
2018-09-23T16:06:15.585Z,76.28
2018-09-23T16:08:46.092Z,75.31
2018-09-23T16:11:16.590Z,74.95
2018-09-23T16:13:46.852Z,74.94
2018-09-23T16:16:17.185Z,75.07
2018-09-23T16:18:47.721Z,75.06
2018-09-23T16:21:17.959Z,75.09
2018-09-23T16:23:48.417Z,75.84
2018-09-23T16:26:18.929Z,76.51
2018-09-23T16:28:49.386Z,77.01
2018-09-23T16:31:19.768Z,77.33
2018-09-23T16:33:50.259Z,77.55
2018-09-23T16:36:20.749Z,78.37
2018-09-23T16:38:51.084Z,78.82
2018-09-23T16:41:21.608Z,78.87
2018-09-23T16:43:52.005Z,79.22
2018-09-23T16:46:22.590Z,78.87
2018-09-23T16:48:52.943Z,78.24
2018-09-23T16:51:23.436Z,78.03
2018-09-23T16:53:53.768Z,77.86
2018-09-23T16:56:24.219Z,79.42
2018-09-23T16:58:54.584Z,78.97
2018-09-23T17:01:24.942Z,79.55
2018-09-23T17:03:55.240Z,79.46
2018-09-23T17:06:31.084Z,79.73
2018-09-23T17:09:01.464Z,79.23
2018-09-23T17:11:31.902Z,80.37
2018-09-23T17:14:02.322Z,80.81
2018-09-23T17:16:32.686Z,81.16
2018-09-23T17:19:03.004Z,80.85
2018-09-23T17:21:33.328Z,80.99
2018-09-23T17:24:03.634Z,80.69
2018-09-23T17:26:33.977Z,80.45
2018-09-23T17:29:04.400Z,80.93
2018-09-23T17:31:34.968Z,80.51
2018-09-23T17:34:05.451Z,81.24
2018-09-23T17:36:35.907Z,81.03
2018-09-23T17:39:09.633Z,81.09
2018-09-23T17:41:40.516Z,81.02
2018-09-23T17:44:10.918Z,81.04
2018-09-23T17:46:41.295Z,80.49
2018-09-23T17:49:11.652Z,81.10
2018-09-23T17:51:41.967Z,80.26
2018-09-23T17:54:12.281Z,80.35
2018-09-23T17:56:42.669Z,80.64
2018-09-23T17:59:13.161Z,81.20
2018-09-23T18:01:43.609Z,81.36
2018-09-23T18:04:14.100Z,81.52
2018-09-23T18:06:44.529Z,81.75
2018-09-23T18:09:14.932Z,81.48
2018-09-23T18:11:45.421Z,81.30
2018-09-23T18:14:15.768Z,81.17
2018-09-23T18:16:46.260Z,81.16
2018-09-23T18:19:16.616Z,81.87
2018-09-23T18:21:46.940Z,81.36
2018-09-23T18:24:17.433Z,81.84
2018-09-23T18:26:47.796Z,82.41
2018-09-23T18:29:18.080Z,81.95
2018-09-23T18:31:48.438Z,82.83
2018-09-23T18:34:23.148Z,82.27
2018-09-23T18:36:54.631Z,81.94
2018-09-23T18:39:25.691Z,81.93
2018-09-23T18:42:04.786Z,81.94
2018-09-23T18:44:35.506Z,81.90
2018-09-23T18:47:08.933Z,81.43
2018-09-23T18:49:39.753Z,81.31
2018-09-23T18:52:10.380Z,81.54
2018-09-23T18:54:45.820Z,81.58
2018-09-23T18:57:16.211Z,82.29
2018-09-23T18:59:46.852Z,82.15
2018-09-23T19:02:17.461Z,82.40
2018-09-23T19:04:47.962Z,82.82
2018-09-23T19:07:18.497Z,82.32
2018-09-23T19:09:49.089Z,82.06
2018-09-23T19:12:19.620Z,82.52
2018-09-23T19:14:49.826Z,82.04
2018-09-23T19:17:20.379Z,82.30
2018-09-23T19:19:55.924Z,82.28
2018-09-23T19:22:31.244Z,81.86
2018-09-23T19:25:01.778Z,82.32
2018-09-23T19:27:32.246Z,81.72
2018-09-23T19:30:02.731Z,82.78
2018-09-23T19:32:33.401Z,82.08
2018-09-23T19:35:03.955Z,82.11
2018-09-23T19:37:34.587Z,82.50
2018-09-23T19:40:05.145Z,81.52
2018-09-23T19:42:35.616Z,80.90
2018-09-23T19:45:06.197Z,81.26
2018-09-23T19:47:36.692Z,81.25
2018-09-23T19:50:07.207Z,81.80
2018-09-23T19:52:37.547Z,81.42
2018-09-23T19:55:08.384Z,82.19
2018-09-23T19:57:38.572Z,81.38
2018-09-23T20:00:08.964Z,81.58
2018-09-23T20:02:39.434Z,82.39
2018-09-23T20:05:10.102Z,81.47
2018-09-23T20:07:41.208Z,81.46
2018-09-23T20:10:11.653Z,81.64
2018-09-23T20:12:42.704Z,81.79
2018-09-23T20:15:17.098Z,81.47
2018-09-23T20:17:48.256Z,81.50
2018-09-23T20:20:18.483Z,81.24
2018-09-23T20:22:49.026Z,80.85
2018-09-23T20:25:19.491Z,82.01
2018-09-23T20:27:49.815Z,81.95
2018-09-23T20:30:20.077Z,81.51
2018-09-23T20:32:50.442Z,81.73
2018-09-23T20:35:21.000Z,81.87
2018-09-23T20:37:51.311Z,81.24
2018-09-23T20:40:21.456Z,81.75
2018-09-23T20:42:51.738Z,81.29
2018-09-23T20:45:22.234Z,81.57
2018-09-23T20:47:52.635Z,81.79
2018-09-23T20:50:22.877Z,81.86
2018-09-23T20:52:53.267Z,82.15
2018-09-23T20:55:23.659Z,81.88
2018-09-23T20:57:53.945Z,81.95
2018-09-23T21:00:24.283Z,81.98
2018-09-23T21:02:54.500Z,81.91
2018-09-23T21:05:24.757Z,81.98
2018-09-23T21:07:55.259Z,81.80
2018-09-23T21:10:25.731Z,81.25
2018-09-23T21:12:56.218Z,81.49
2018-09-23T21:15:26.686Z,81.56
2018-09-23T21:17:56.975Z,81.47
2018-09-23T21:20:28.073Z,81.30
2018-09-23T21:22:59.300Z,81.47
2018-09-23T21:25:29.768Z,80.94
2018-09-23T21:28:00.235Z,80.77
2018-09-23T21:30:30.450Z,80.54
2018-09-23T21:33:00.730Z,80.75
2018-09-23T21:35:31.011Z,80.48
2018-09-23T21:38:01.224Z,81.09
2018-09-23T21:40:31.758Z,81.05
2018-09-23T21:43:02.331Z,81.24
2018-09-23T21:45:32.758Z,81.55
2018-09-23T21:48:03.326Z,81.67
2018-09-23T21:50:34.143Z,82.10
2018-09-23T21:53:04.607Z,82.39
2018-09-23T21:55:34.976Z,82.40
2018-09-23T21:58:05.417Z,82.22
2018-09-23T22:00:40.876Z,82.98
2018-09-23T22:03:12.313Z,82.41
2018-09-23T22:05:42.840Z,82.03
2018-09-23T22:08:13.556Z,82.56
2018-09-23T22:10:43.941Z,82.44
2018-09-23T22:13:14.210Z,82.19
2018-09-23T22:15:44.599Z,82.00
2018-09-23T22:18:15.091Z,82.64
2018-09-23T22:20:45.469Z,82.53
2018-09-23T22:23:15.814Z,83.10
2018-09-23T22:25:46.337Z,83.08
2018-09-23T22:28:16.816Z,82.35
2018-09-23T22:30:47.211Z,82.35
2018-09-23T22:33:17.564Z,82.43
2018-09-23T22:35:48.067Z,82.29
2018-09-23T22:38:18.655Z,82.69
2018-09-23T22:40:49.024Z,82.20
2018-09-23T22:43:19.496Z,82.32
2018-09-23T22:45:50.008Z,82.58
2018-09-23T22:48:20.507Z,82.14
2018-09-23T22:50:50.813Z,81.75
2018-09-23T22:53:21.258Z,81.87
2018-09-23T22:55:51.537Z,81.80
2018-09-23T22:58:21.905Z,81.77
2018-09-23T23:00:52.368Z,81.35
2018-09-23T23:03:22.799Z,81.10
2018-09-23T23:05:53.175Z,81.92
2018-09-23T23:08:23.490Z,81.49
2018-09-23T23:10:53.915Z,81.76
2018-09-23T23:13:24.668Z,81.63
2018-09-23T23:15:55.098Z,81.58
2018-09-23T23:18:25.468Z,82.24
2018-09-23T23:20:55.745Z,82.00
2018-09-23T23:23:26.108Z,81.84
2018-09-23T23:25:56.489Z,81.96
2018-09-23T23:28:26.978Z,81.47
2018-09-23T23:30:57.374Z,81.87
2018-09-23T23:33:27.729Z,81.36
2018-09-23T23:35:58.017Z,80.85
2018-09-23T23:38:28.400Z,81.06
2018-09-23T23:40:58.691Z,81.14
2018-09-23T23:43:28.957Z,81.53
2018-09-23T23:45:59.420Z,81.40
2018-09-23T23:48:29.932Z,81.14
2018-09-23T23:51:00.307Z,80.99
2018-09-23T23:53:30.687Z,81.54
2018-09-23T23:56:01.036Z,81.12
2018-09-23T23:58:31.511Z,81.05
